Charles Town, West Virginia
Current Conditions -  °F | °C
As of 2:53 PM on Sunday 21 Dec 2014 (Local Time) from KMRB Reporting Station
Clear Clear  
Wind Chill: 38°   Ceiling: Unl
Heat Index: 41°   Visibility: 10mi
Dew Point: 21°   Wind: 5mph
Humidity: 45%   Direction: NA
Pressure: 30.27"   Gusts: NA
Location:  39.29°N, 77.86°W
Report Text: KMRB 211953Z VRB04KT 10SM CLR 05/M06 A3027 RMK AO2 SLP253 T00501061
Loading
Personal Weather Stations






























Interactive Weather Map New forecast layout! Learn more

10-Day Weather Forecast

Advertisements
Track Severe Weather on mobile